sensor_id;sensor_type;location;lat;lon;timestamp;pressure;altitude;pressure_sealevel;temperature;humidity
64711;BME280;51139;45.626;6.850;2024-01-30T07:51:50;83135.97;;;3.19;54.61
64711;BME280;51139;45.626;6.850;2024-01-30T07:54:16;83146.28;;;3.65;53.79
64711;BME280;51139;45.626;6.850;2024-01-30T07:56:42;83147.78;;;3.97;52.17
64711;BME280;51139;45.626;6.850;2024-01-30T07:59:11;83154.78;;;4.61;51.00
64711;BME280;51139;45.626;6.850;2024-01-30T08:01:37;83151.63;;;4.68;50.93
64711;BME280;51139;45.626;6.850;2024-01-30T08:04:02;83158.41;;;4.88;50.09
64711;BME280;51139;45.626;6.850;2024-01-30T08:06:27;83156.28;;;5.11;49.41
64711;BME280;51139;45.626;6.850;2024-01-30T08:08:53;83153.56;;;5.48;49.19
64711;BME280;51139;45.626;6.850;2024-01-30T08:11:21;83157.63;;;5.49;48.29
64711;BME280;51139;45.626;6.850;2024-01-30T08:13:51;83156.13;;;5.78;47.22
64711;BME280;51139;45.626;6.850;2024-01-30T08:16:17;83157.31;;;5.77;46.77
64711;BME280;51139;45.626;6.850;2024-01-30T08:18:42;83156.78;;;6.42;43.56
64711;BME280;51139;45.626;6.850;2024-01-30T08:21:07;83159.06;;;6.51;43.74
64711;BME280;51139;45.626;6.850;2024-01-30T08:23:33;83156.84;;;6.17;45.06
64711;BME280;51139;45.626;6.850;2024-01-30T08:25:59;83152.22;;;6.42;46.97
64711;BME280;51139;45.626;6.850;2024-01-30T08:28:24;83152.38;;;6.69;45.70
64711;BME280;51139;45.626;6.850;2024-01-30T08:30:49;83149.09;;;7.82;42.46
64711;BME280;51139;45.626;6.850;2024-01-30T08:33:15;83155.19;;;7.91;42.55
64711;BME280;51139;45.626;6.850;2024-01-30T08:35:40;83162.28;;;8.84;40.67
64711;BME280;51139;45.626;6.850;2024-01-30T08:38:06;83159.75;;;7.90;42.13
64711;BME280;51139;45.626;6.850;2024-01-30T08:40:31;83162.47;;;8.52;39.86
64711;BME280;51139;45.626;6.850;2024-01-30T08:42:56;83149.47;;;8.40;39.96
64711;BME280;51139;45.626;6.850;2024-01-30T08:45:22;83163.75;;;8.45;40.97
64711;BME280;51139;45.626;6.850;2024-01-30T08:47:47;83159.97;;;9.44;37.64
64711;BME280;51139;45.626;6.850;2024-01-30T08:50:12;83161.66;;;9.55;36.60
64711;BME280;51139;45.626;6.850;2024-01-30T08:52:38;83152.31;;;11.01;35.37
64711;BME280;51139;45.626;6.850;2024-01-30T08:55:03;83162.19;;;10.41;35.05
64711;BME280;51139;45.626;6.850;2024-01-30T08:57:29;83161.00;;;10.49;34.89
64711;BME280;51139;45.626;6.850;2024-01-30T08:59:55;83154.03;;;10.75;32.04
64711;BME280;51139;45.626;6.850;2024-01-30T09:02:21;83154.50;;;11.18;33.69
64711;BME280;51139;45.626;6.850;2024-01-30T09:04:46;83153.13;;;11.87;31.27
64711;BME280;51139;45.626;6.850;2024-01-30T09:07:12;83153.38;;;12.69;30.00
64711;BME280;51139;45.626;6.850;2024-01-30T09:09:39;83153.47;;;13.43;29.60
64711;BME280;51139;45.626;6.850;2024-01-30T09:12:06;83146.16;;;13.77;29.53
64711;BME280;51139;45.626;6.850;2024-01-30T09:14:34;83147.06;;;12.49;29.82
64711;BME280;51139;45.626;6.850;2024-01-30T09:17:00;83143.78;;;13.22;30.43
64711;BME280;51139;45.626;6.850;2024-01-30T09:19:25;83146.34;;;12.48;30.82
64711;BME280;51139;45.626;6.850;2024-01-30T09:21:50;83144.03;;;12.60;31.85
64711;BME280;51139;45.626;6.850;2024-01-30T09:24:16;83149.97;;;11.96;33.96
64711;BME280;51139;45.626;6.850;2024-01-30T09:26:41;83146.22;;;12.38;31.93
64711;BME280;51139;45.626;6.850;2024-01-30T09:29:07;83145.91;;;13.24;28.85
64711;BME280;51139;45.626;6.850;2024-01-30T09:31:32;83156.00;;;10.09;31.73
64711;BME280;51139;45.626;6.850;2024-01-30T09:33:57;83145.72;;;11.70;32.92
64711;BME280;51139;45.626;6.850;2024-01-30T09:36:23;83146.94;;;11.77;33.64
64711;BME280;51139;45.626;6.850;2024-01-30T09:38:49;83151.75;;;12.02;32.75
64711;BME280;51139;45.626;6.850;2024-01-30T09:41:14;83146.88;;;13.03;30.81
64711;BME280;51139;45.626;6.850;2024-01-30T09:43:41;83142.06;;;13.50;28.45
64711;BME280;51139;45.626;6.850;2024-01-30T09:46:14;83139.84;;;12.42;29.67
64711;BME280;51139;45.626;6.850;2024-01-30T09:48:42;83143.19;;;12.34;29.89
64711;BME280;51139;45.626;6.850;2024-01-30T09:51:10;83146.56;;;14.16;26.41
64711;BME280;51139;45.626;6.850;2024-01-30T09:53:37;83146.31;;;14.04;26.73
64711;BME280;51139;45.626;6.850;2024-01-30T09:56:04;83143.34;;;13.75;27.06
64711;BME280;51139;45.626;6.850;2024-01-30T09:58:30;83145.16;;;14.93;24.42
64711;BME280;51139;45.626;6.850;2024-01-30T10:00:56;83147.75;;;14.66;25.77
64711;BME280;51139;45.626;6.850;2024-01-30T10:03:21;83144.47;;;13.89;26.54
64711;BME280;51139;45.626;6.850;2024-01-30T10:05:51;83152.91;;;13.45;26.25
64711;BME280;51139;45.626;6.850;2024-01-30T10:08:19;83154.50;;;13.07;29.46
64711;BME280;51139;45.626;6.850;2024-01-30T10:10:47;83151.81;;;13.48;28.20
64711;BME280;51139;45.626;6.850;2024-01-30T10:13:12;83159.50;;;14.63;28.41
64711;BME280;51139;45.626;6.850;2024-01-30T10:15:38;83158.34;;;14.30;28.96
64711;BME280;51139;45.626;6.850;2024-01-30T10:18:04;83155.94;;;13.99;29.90
64711;BME280;51139;45.626;6.850;2024-01-30T10:20:32;83148.50;;;12.50;26.94
64711;BME280;51139;45.626;6.850;2024-01-30T10:22:57;83149.06;;;12.17;30.29
64711;BME280;51139;45.626;6.850;2024-01-30T10:25:23;83147.81;;;12.26;27.65
64711;BME280;51139;45.626;6.850;2024-01-30T10:27:53;83143.06;;;12.89;29.04
64711;BME280;51139;45.626;6.850;2024-01-30T10:30:19;83145.25;;;10.96;34.01
64711;BME280;51139;45.626;6.850;2024-01-30T10:32:44;83141.28;;;11.49;33.05
64711;BME280;51139;45.626;6.850;2024-01-30T10:35:10;83143.59;;;11.68;33.95
64711;BME280;51139;45.626;6.850;2024-01-30T10:37:35;83145.91;;;11.57;33.33
64711;BME280;51139;45.626;6.850;2024-01-30T10:40:04;83147.09;;;11.40;34.74
64711;BME280;51139;45.626;6.850;2024-01-30T10:42:32;83144.22;;;11.07;36.35
64711;BME280;51139;45.626;6.850;2024-01-30T10:45:06;83142.53;;;11.56;34.44
64711;BME280;51139;45.626;6.850;2024-01-30T10:47:35;83142.50;;;11.25;35.27
64711;BME280;51139;45.626;6.850;2024-01-30T10:50:02;83136.84;;;11.91;33.07
64711;BME280;51139;45.626;6.850;2024-01-30T10:52:28;83137.38;;;11.89;31.29
64711;BME280;51139;45.626;6.850;2024-01-30T10:54:55;83131.50;;;11.05;35.15
64711;BME280;51139;45.626;6.850;2024-01-30T10:57:25;83134.81;;;10.90;35.56
64711;BME280;51139;45.626;6.850;2024-01-30T10:59:56;83136.06;;;10.97;35.07
64711;BME280;51139;45.626;6.850;2024-01-30T11:02:23;83128.47;;;11.01;35.11
64711;BME280;51139;45.626;6.850;2024-01-30T11:04:49;83121.75;;;10.92;30.64
64711;BME280;51139;45.626;6.850;2024-01-30T11:07:19;83125.50;;;11.13;33.53
64711;BME280;51139;45.626;6.850;2024-01-30T11:09:53;83115.88;;;10.71;35.64
64711;BME280;51139;45.626;6.850;2024-01-30T11:12:22;83127.06;;;11.00;34.67
64711;BME280;51139;45.626;6.850;2024-01-30T11:14:49;83126.63;;;10.65;35.44
64711;BME280;51139;45.626;6.850;2024-01-30T11:17:15;83130.75;;;10.97;35.40
64711;BME280;51139;45.626;6.850;2024-01-30T11:19:41;83131.91;;;10.28;37.35
64711;BME280;51139;45.626;6.850;2024-01-30T11:22:07;83130.03;;;9.49;37.90
64711;BME280;51139;45.626;6.850;2024-01-30T11:24:42;83126.47;;;10.34;38.91
64711;BME280;51139;45.626;6.850;2024-01-30T11:27:09;83129.56;;;10.54;37.19
64711;BME280;51139;45.626;6.850;2024-01-30T11:29:35;83118.00;;;10.80;37.41
64711;BME280;51139;45.626;6.850;2024-01-30T11:32:02;83126.84;;;10.75;35.56
64711;BME280;51139;45.626;6.850;2024-01-30T11:34:27;83128.16;;;10.53;34.34
64711;BME280;51139;45.626;6.850;2024-01-30T11:37:02;83131.31;;;10.51;34.31
64711;BME280;51139;45.626;6.850;2024-01-30T11:39:32;83130.34;;;10.77;35.15
64711;BME280;51139;45.626;6.850;2024-01-30T11:41:58;83123.97;;;10.28;34.32
64711;BME280;51139;45.626;6.850;2024-01-30T11:44:24;83126.91;;;11.06;34.80
64711;BME280;51139;45.626;6.850;2024-01-30T11:46:51;83129.13;;;10.34;34.64
64711;BME280;51139;45.626;6.850;2024-01-30T11:49:17;83128.47;;;10.41;35.14
64711;BME280;51139;45.626;6.850;2024-01-30T11:51:45;83128.47;;;10.41;34.66
64711;BME280;51139;45.626;6.850;2024-01-30T11:54:10;83124.63;;;9.84;34.13
64711;BME280;51139;45.626;6.850;2024-01-30T11:56:37;83131.28;;;9.77;34.16
64711;BME280;51139;45.626;6.850;2024-01-30T11:59:02;83119.56;;;10.31;36.42
64711;BME280;51139;45.626;6.850;2024-01-30T12:01:28;83126.31;;;9.74;35.90
64711;BME280;51139;45.626;6.850;2024-01-30T12:03:55;83117.81;;;9.68;35.24
64711;BME280;51139;45.626;6.850;2024-01-30T12:06:22;83122.03;;;9.92;35.71
64711;BME280;51139;45.626;6.850;2024-01-30T12:08:58;83114.44;;;10.25;35.38
64711;BME280;51139;45.626;6.850;2024-01-30T12:11:45;83112.97;;;10.16;35.48
64711;BME280;51139;45.626;6.850;2024-01-30T12:14:11;83113.50;;;9.57;35.82
64711;BME280;51139;45.626;6.850;2024-01-30T12:16:37;83112.63;;;10.20;35.62
64711;BME280;51139;45.626;6.850;2024-01-30T12:19:02;83105.66;;;9.43;36.20
64711;BME280;51139;45.626;6.850;2024-01-30T12:21:29;83109.22;;;9.46;35.79
64711;BME280;51139;45.626;6.850;2024-01-30T12:23:55;83105.19;;;9.53;35.96
64711;BME280;51139;45.626;6.850;2024-01-30T12:26:21;83101.41;;;9.69;37.25
64711;BME280;51139;45.626;6.850;2024-01-30T12:28:50;83105.16;;;9.45;39.33
64711;BME280;51139;45.626;6.850;2024-01-30T12:31:15;83101.22;;;9.67;38.81
64711;BME280;51139;45.626;6.850;2024-01-30T12:33:41;83099.44;;;10.28;37.28
64711;BME280;51139;45.626;6.850;2024-01-30T12:36:07;83095.19;;;9.59;37.81
64711;BME280;51139;45.626;6.850;2024-01-30T12:38:32;83095.22;;;8.74;39.03
64711;BME280;51139;45.626;6.850;2024-01-30T12:40:58;83099.31;;;9.17;40.24
64711;BME280;51139;45.626;6.850;2024-01-30T12:43:25;83099.88;;;9.45;40.81
64711;BME280;51139;45.626;6.850;2024-01-30T12:45:50;83094.44;;;9.51;41.18
64711;BME280;51139;45.626;6.850;2024-01-30T12:48:15;83096.22;;;9.85;39.30
64711;BME280;51139;45.626;6.850;2024-01-30T12:50:41;83094.72;;;9.68;37.30
64711;BME280;51139;45.626;6.850;2024-01-30T12:53:07;83090.75;;;9.54;38.20
64711;BME280;51139;45.626;6.850;2024-01-30T12:55:34;83091.94;;;9.74;39.56
64711;BME280;51139;45.626;6.850;2024-01-30T12:57:59;83090.56;;;10.17;38.72
64711;BME280;51139;45.626;6.850;2024-01-30T13:00:25;83088.28;;;10.21;36.27
64711;BME280;51139;45.626;6.850;2024-01-30T13:02:50;83092.81;;;10.13;38.04
64711;BME280;51139;45.626;6.850;2024-01-30T13:05:16;83094.38;;;9.72;36.82
64711;BME280;51139;45.626;6.850;2024-01-30T13:07:41;83094.94;;;9.78;37.54
64711;BME280;51139;45.626;6.850;2024-01-30T13:10:07;83096.66;;;9.68;36.88
64711;BME280;51139;45.626;6.850;2024-01-30T13:12:32;83096.03;;;9.54;36.08
64711;BME280;51139;45.626;6.850;2024-01-30T13:14:59;83084.56;;;9.51;36.87
64711;BME280;51139;45.626;6.850;2024-01-30T13:17:26;83086.31;;;9.48;36.89
64711;BME280;51139;45.626;6.850;2024-01-30T13:19:52;83087.41;;;9.03;38.97
64711;BME280;51139;45.626;6.850;2024-01-30T13:22:19;83096.22;;;9.05;37.03
64711;BME280;51139;45.626;6.850;2024-01-30T13:24:47;83099.56;;;8.85;37.75
64711;BME280;51139;45.626;6.850;2024-01-30T13:27:12;83096.44;;;8.38;38.59
64711;BME280;51139;45.626;6.850;2024-01-30T13:29:38;83102.13;;;9.41;36.66
64711;BME280;51139;45.626;6.850;2024-01-30T13:32:03;83098.66;;;9.25;36.15
64711;BME280;51139;45.626;6.850;2024-01-30T13:34:29;83092.34;;;9.28;38.63
64711;BME280;51139;45.626;6.850;2024-01-30T13:36:54;83090.41;;;9.28;38.80
64711;BME280;51139;45.626;6.850;2024-01-30T13:42:41;83096.84;;;9.19;37.46
64711;BME280;51139;45.626;6.850;2024-01-30T13:45:08;83098.72;;;9.11;39.37
64711;BME280;51139;45.626;6.850;2024-01-30T13:47:35;83105.53;;;9.78;38.34
64711;BME280;51139;45.626;6.850;2024-01-30T13:50:00;83089.44;;;10.05;38.43
64711;BME280;51139;45.626;6.850;2024-01-30T13:52:25;83093.59;;;10.29;37.59
64711;BME280;51139;45.626;6.850;2024-01-30T13:54:52;83100.13;;;10.20;40.01
64711;BME280;51139;45.626;6.850;2024-01-30T13:57:17;83098.72;;;10.27;39.76
64711;BME280;51139;45.626;6.850;2024-01-30T13:59:43;83096.75;;;10.20;39.85
64711;BME280;51139;45.626;6.850;2024-01-30T14:02:08;83098.63;;;10.41;39.29
64711;BME280;51139;45.626;6.850;2024-01-30T14:04:35;83100.53;;;9.67;40.17
64711;BME280;51139;45.626;6.850;2024-01-30T14:07:02;83105.59;;;9.86;41.02
64711;BME280;51139;45.626;6.850;2024-01-30T14:09:28;83110.72;;;10.28;40.22
64711;BME280;51139;45.626;6.850;2024-01-30T14:11:54;83115.19;;;9.68;41.63
64711;BME280;51139;45.626;6.850;2024-01-30T14:14:19;83117.81;;;9.39;41.22
64711;BME280;51139;45.626;6.850;2024-01-30T14:16:45;83111.06;;;9.59;40.48
64711;BME280;51139;45.626;6.850;2024-01-30T14:19:10;83119.19;;;9.61;40.52
64711;BME280;51139;45.626;6.850;2024-01-30T14:21:35;83117.75;;;9.60;40.13
64711;BME280;51139;45.626;6.850;2024-01-30T14:24:02;83115.44;;;9.77;38.92
64711;BME280;51139;45.626;6.850;2024-01-30T14:26:28;83124.38;;;9.03;39.46
64711;BME280;51139;45.626;6.850;2024-01-30T14:28:53;83122.63;;;8.36;40.34
64711;BME280;51139;45.626;6.850;2024-01-30T14:31:20;83110.53;;;8.54;40.50
64711;BME280;51139;45.626;6.850;2024-01-30T14:33:46;83113.91;;;8.41;40.48
64711;BME280;51139;45.626;6.850;2024-01-30T14:36:12;83108.44;;;8.53;40.09
64711;BME280;51139;45.626;6.850;2024-01-30T14:38:39;83116.34;;;8.39;40.02
64711;BME280;51139;45.626;6.850;2024-01-30T14:41:04;83112.84;;;8.23;40.58
64711;BME280;51139;45.626;6.850;2024-01-30T14:43:31;83115.53;;;8.44;40.88
64711;BME280;51139;45.626;6.850;2024-01-30T14:45:56;83117.81;;;9.17;41.31
64711;BME280;51139;45.626;6.850;2024-01-30T14:48:23;83114.31;;;9.23;40.29
64711;BME280;51139;45.626;6.850;2024-01-30T14:50:48;83118.88;;;8.80;39.94
64711;BME280;51139;45.626;6.850;2024-01-30T14:53:14;83112.25;;;9.08;40.52
64711;BME280;51139;45.626;6.850;2024-01-30T14:55:39;83119.94;;;9.19;40.14
64711;BME280;51139;45.626;6.850;2024-01-30T14:58:04;83120.72;;;9.06;40.73
64711;BME280;51139;45.626;6.850;2024-01-30T15:00:30;83116.31;;;9.30;40.13
64711;BME280;51139;45.626;6.850;2024-01-30T15:02:56;83122.13;;;9.28;41.47
64711;BME280;51139;45.626;6.850;2024-01-30T15:05:21;83130.56;;;9.05;41.46
64711;BME280;51139;45.626;6.850;2024-01-30T15:07:47;83124.38;;;9.03;40.77
64711;BME280;51139;45.626;6.850;2024-01-30T15:10:12;83124.25;;;9.09;39.97
64711;BME280;51139;45.626;6.850;2024-01-30T15:12:38;83123.78;;;8.75;40.36
64711;BME280;51139;45.626;6.850;2024-01-30T15:15:06;83131.59;;;8.20;41.96
64711;BME280;51139;45.626;6.850;2024-01-30T15:17:32;83136.06;;;8.25;41.96
64711;BME280;51139;45.626;6.850;2024-01-30T15:19:58;83132.13;;;9.01;41.43
64711;BME280;51139;45.626;6.850;2024-01-30T15:22:25;83135.53;;;9.30;40.76
64711;BME280;51139;45.626;6.850;2024-01-30T15:24:50;83130.19;;;9.23;40.45
64711;BME280;51139;45.626;6.850;2024-01-30T15:27:16;83136.97;;;9.10;41.41
64711;BME280;51139;45.626;6.850;2024-01-30T15:29:41;83136.75;;;8.87;42.14
64711;BME280;51139;45.626;6.850;2024-01-30T15:32:06;83136.50;;;8.64;42.71
64711;BME280;51139;45.626;6.850;2024-01-30T15:34:32;83134.69;;;8.58;42.94
64711;BME280;51139;45.626;6.850;2024-01-30T15:36:57;83141.22;;;8.57;41.40
64711;BME280;51139;45.626;6.850;2024-01-30T15:39:23;83138.50;;;8.84;41.68
64711;BME280;51139;45.626;6.850;2024-01-30T15:41:49;83136.09;;;8.94;42.46
64711;BME280;51139;45.626;6.850;2024-01-30T15:44:14;83144.09;;;8.81;41.44
64711;BME280;51139;45.626;6.850;2024-01-30T15:46:40;83143.53;;;7.99;42.22
64711;BME280;51139;45.626;6.850;2024-01-30T15:49:05;83137.94;;;7.76;43.32
64711;BME280;51139;45.626;6.850;2024-01-30T15:51:32;83140.19;;;8.60;42.74
64711;BME280;51139;45.626;6.850;2024-01-30T15:53:57;83148.00;;;8.66;42.65
64711;BME280;51139;45.626;6.850;2024-01-30T15:56:23;83140.53;;;8.43;44.11
64711;BME280;51139;45.626;6.850;2024-01-30T15:58:48;83144.84;;;8.68;43.84
64711;BME280;51139;45.626;6.850;2024-01-30T16:01:18;83147.84;;;8.51;43.55
64711;BME280;51139;45.626;6.850;2024-01-30T16:03:43;83155.53;;;8.49;41.98
64711;BME280;51139;45.626;6.850;2024-01-30T16:06:13;83143.03;;;7.74;42.93
64711;BME280;51139;45.626;6.850;2024-01-30T16:08:39;83148.22;;;7.07;44.27
64711;BME280;51139;45.626;6.850;2024-01-30T16:11:06;83153.81;;;7.17;45.18
64711;BME280;51139;45.626;6.850;2024-01-30T16:13:32;83154.03;;;7.19;44.95
64711;BME280;51139;45.626;6.850;2024-01-30T16:16:00;83150.16;;;6.74;45.08
64711;BME280;51139;45.626;6.850;2024-01-30T16:18:26;83156.59;;;7.05;44.20
64711;BME280;51139;45.626;6.850;2024-01-30T16:20:51;83154.63;;;7.11;44.36
64711;BME280;51139;45.626;6.850;2024-01-30T16:23:17;83160.38;;;7.10;44.11
64711;BME280;51139;45.626;6.850;2024-01-30T16:25:42;83164.59;;;7.32;43.72
64711;BME280;51139;45.626;6.850;2024-01-30T16:28:07;83167.91;;;7.19;43.57
64711;BME280;51139;45.626;6.850;2024-01-30T16:30:33;83158.38;;;7.29;43.30
64711;BME280;51139;45.626;6.850;2024-01-30T16:32:58;83157.69;;;7.29;42.48
64711;BME280;51139;45.626;6.850;2024-01-30T16:35:26;83159.81;;;7.30;46.24
64711;BME280;51139;45.626;6.850;2024-01-30T16:37:51;83171.16;;;7.25;44.46
64711;BME280;51139;45.626;6.850;2024-01-30T16:40:16;83167.28;;;7.26;46.54
64711;BME280;51139;45.626;6.850;2024-01-30T16:42:42;83175.19;;;7.26;43.04
64711;BME280;51139;45.626;6.850;2024-01-30T16:45:07;83177.50;;;6.51;48.65
64711;BME280;51139;45.626;6.850;2024-01-30T16:47:33;83176.66;;;5.99;49.98
64711;BME280;51139;45.626;6.850;2024-01-30T16:49:58;83185.97;;;5.56;50.96
64711;BME280;51139;45.626;6.850;2024-01-30T16:52:23;83183.34;;;5.31;51.20
64711;BME280;51139;45.626;6.850;2024-01-30T16:54:51;83190.31;;;5.23;51.87
64711;BME280;51139;45.626;6.850;2024-01-30T16:57:17;83191.41;;;5.08;52.26
64711;BME280;51139;45.626;6.850;2024-01-30T16:59:42;83186.75;;;4.95;51.50
64711;BME280;51139;45.626;6.850;2024-01-30T17:02:08;83199.50;;;4.80;53.32
64711;BME280;51139;45.626;6.850;2024-01-30T17:04:33;83201.00;;;4.70;54.25
64711;BME280;51139;45.626;6.850;2024-01-30T17:06:59;83194.22;;;4.86;53.94
64711;BME280;51139;45.626;6.850;2024-01-30T17:09:25;83195.09;;;4.94;53.38
64711;BME280;51139;45.626;6.850;2024-01-30T17:11:50;83193.69;;;4.93;54.37
64711;BME280;51139;45.626;6.850;2024-01-30T17:14:15;83196.38;;;4.87;54.91
64711;BME280;51139;45.626;6.850;2024-01-30T17:16:43;83198.13;;;4.73;54.91
64711;BME280;51139;45.626;6.850;2024-01-30T17:19:10;83196.94;;;4.68;54.50
64711;BME280;51139;45.626;6.850;2024-01-30T17:21:36;83197.41;;;4.73;54.76
64711;BME280;51139;45.626;6.850;2024-01-30T17:24:02;83193.56;;;4.74;55.89
64711;BME280;51139;45.626;6.850;2024-01-30T17:26:28;83195.09;;;4.63;56.40
64711;BME280;51139;45.626;6.850;2024-01-30T17:28:53;83189.84;;;4.63;56.37
64711;BME280;51139;45.626;6.850;2024-01-30T17:31:18;83190.09;;;4.60;57.77
64711;BME280;51139;45.626;6.850;2024-01-30T17:33:44;83198.75;;;4.49;57.72
64711;BME280;51139;45.626;6.850;2024-01-30T17:36:09;83200.03;;;4.36;58.43
64711;BME280;51139;45.626;6.850;2024-01-30T17:38:35;83195.47;;;4.37;58.88
64711;BME280;51139;45.626;6.850;2024-01-30T17:41:00;83197.25;;;4.23;60.66
64711;BME280;51139;45.626;6.850;2024-01-30T17:43:26;83200.34;;;4.21;62.34
64711;BME280;51139;45.626;6.850;2024-01-30T17:45:51;83196.28;;;4.26;63.95
64711;BME280;51139;45.626;6.850;2024-01-30T17:48:16;83200.31;;;4.27;64.17
64711;BME280;51139;45.626;6.850;2024-01-30T17:50:43;83205.88;;;4.12;63.92
64711;BME280;51139;45.626;6.850;2024-01-30T17:53:08;83195.72;;;3.91;65.42
64711;BME280;51139;45.626;6.850;2024-01-30T17:55:34;83193.31;;;3.99;66.90
64711;BME280;51139;45.626;6.850;2024-01-30T17:57:59;83192.28;;;4.14;62.98
64711;BME280;51139;45.626;6.850;2024-01-30T18:00:25;83190.69;;;3.99;63.30
64711;BME280;51139;45.626;6.850;2024-01-30T18:02:50;83195.22;;;3.93;63.55
64711;BME280;51139;45.626;6.850;2024-01-30T18:05:18;83195.66;;;4.08;62.91
64711;BME280;51139;45.626;6.850;2024-01-30T18:07:43;83189.97;;;3.93;61.55
64711;BME280;51139;45.626;6.850;2024-01-30T18:10:10;83196.41;;;3.92;59.44
64711;BME280;51139;45.626;6.850;2024-01-30T18:12:38;83200.94;;;3.97;60.30
64711;BME280;51139;45.626;6.850;2024-01-30T18:15:03;83202.66;;;3.83;63.69
64711;BME280;51139;45.626;6.850;2024-01-30T18:17:29;83206.06;;;3.61;66.00
64711;BME280;51139;45.626;6.850;2024-01-30T18:19:55;83208.22;;;3.57;68.90
64711;BME280;51139;45.626;6.850;2024-01-30T18:22:20;83211.84;;;3.42;70.64
64711;BME280;51139;45.626;6.850;2024-01-30T18:24:45;83213.25;;;3.49;71.31
64711;BME280;51139;45.626;6.850;2024-01-30T18:27:11;83214.44;;;3.54;68.80
64711;BME280;51139;45.626;6.850;2024-01-30T18:29:36;83215.41;;;3.50;67.27
64711;BME280;51139;45.626;6.850;2024-01-30T18:32:02;83212.19;;;3.80;62.36
64711;BME280;51139;45.626;6.850;2024-01-30T18:34:28;83217.00;;;3.65;63.79
64711;BME280;51139;45.626;6.850;2024-01-30T18:36:54;83223.44;;;3.70;65.65
64711;BME280;51139;45.626;6.850;2024-01-30T18:39:23;83230.59;;;3.69;67.31
64711;BME280;51139;45.626;6.850;2024-01-30T18:41:48;83223.47;;;3.58;66.61
64711;BME280;51139;45.626;6.850;2024-01-30T18:44:13;83224.88;;;3.65;67.65
64711;BME280;51139;45.626;6.850;2024-01-30T18:46:39;83228.72;;;3.58;68.30
64711;BME280;51139;45.626;6.850;2024-01-30T18:49:05;83234.94;;;3.55;68.93
64711;BME280;51139;45.626;6.850;2024-01-30T18:51:30;83235.88;;;3.46;67.54
64711;BME280;51139;45.626;6.850;2024-01-30T18:53:55;83234.00;;;3.35;69.21
64711;BME280;51139;45.626;6.850;2024-01-30T18:56:21;83241.59;;;3.45;66.32
64711;BME280;51139;45.626;6.850;2024-01-30T18:58:46;83236.34;;;3.50;64.00
64711;BME280;51139;45.626;6.850;2024-01-30T19:01:12;83242.34;;;3.34;63.78
64711;BME280;51139;45.626;6.850;2024-01-30T19:03:38;83234.28;;;3.20;65.45
64711;BME280;51139;45.626;6.850;2024-01-30T19:06:04;83244.25;;;3.28;64.05
64711;BME280;51139;45.626;6.850;2024-01-30T19:08:30;83246.84;;;3.33;62.83
64711;BME280;51139;45.626;6.850;2024-01-30T19:10:56;83241.41;;;3.26;65.04
64711;BME280;51139;45.626;6.850;2024-01-30T19:13:21;83243.09;;;3.12;65.84
64711;BME280;51139;45.626;6.850;2024-01-30T19:15:47;83242.84;;;3.15;66.56
64711;BME280;51139;45.626;6.850;2024-01-30T19:18:12;83244.97;;;3.34;62.97
64711;BME280;51139;45.626;6.850;2024-01-30T19:20:38;83239.50;;;3.15;63.26
64711;BME280;51139;45.626;6.850;2024-01-30T19:23:03;83244.28;;;2.99;64.95
64711;BME280;51139;45.626;6.850;2024-01-30T19:25:29;83245.94;;;3.02;62.69
64711;BME280;51139;45.626;6.850;2024-01-30T19:27:55;83239.28;;;3.01;62.09
64711;BME280;51139;45.626;6.850;2024-01-30T19:30:24;83230.22;;;3.08;59.55
64711;BME280;51139;45.626;6.850;2024-01-30T19:32:50;83248.56;;;3.14;58.03
64711;BME280;51139;45.626;6.850;2024-01-30T19:35:15;83242.13;;;2.98;59.35
64711;BME280;51139;45.626;6.850;2024-01-30T19:37:41;83235.00;;;2.92;60.10
64711;BME280;51139;45.626;6.850;2024-01-30T19:40:06;83237.38;;;3.02;61.50
64711;BME280;51139;45.626;6.850;2024-01-30T19:42:32;83238.56;;;3.24;59.41
64711;BME280;51139;45.626;6.850;2024-01-30T19:44:58;83241.19;;;3.12;60.31
64711;BME280;51139;45.626;6.850;2024-01-30T19:47:23;83233.56;;;3.03;61.44
64711;BME280;51139;45.626;6.850;2024-01-30T19:49:48;83242.13;;;2.86;62.52
64711;BME280;51139;45.626;6.850;2024-01-30T19:52:14;83242.88;;;2.87;63.07
64711;BME280;51139;45.626;6.850;2024-01-30T19:54:40;83236.41;;;2.94;63.27
64711;BME280;51139;45.626;6.850;2024-01-30T19:57:06;83247.16;;;2.90;63.53
64711;BME280;51139;45.626;6.850;2024-01-30T19:59:31;83243.34;;;2.91;62.66
64711;BME280;51139;45.626;6.850;2024-01-30T20:01:59;83249.53;;;2.88;64.06
64711;BME280;51139;45.626;6.850;2024-01-30T20:04:25;83245.47;;;2.87;64.87
64711;BME280;51139;45.626;6.850;2024-01-30T20:06:50;83246.91;;;2.76;64.62
64711;BME280;51139;45.626;6.850;2024-01-30T20:09:16;83247.13;;;2.61;66.48
64711;BME280;51139;45.626;6.850;2024-01-30T20:11:41;83250.94;;;2.83;68.42
64711;BME280;51139;45.626;6.850;2024-01-30T20:14:07;83252.38;;;3.18;64.56
64711;BME280;51139;45.626;6.850;2024-01-30T20:16:39;83248.78;;;3.33;63.39
64711;BME280;51139;45.626;6.850;2024-01-30T20:19:06;83248.81;;;2.76;64.14
64711;BME280;51139;45.626;6.850;2024-01-30T20:21:33;83255.19;;;2.58;65.19
64711;BME280;51139;45.626;6.850;2024-01-30T20:23:59;83256.38;;;2.57;65.41
64711;BME280;51139;45.626;6.850;2024-01-30T20:26:25;83250.91;;;2.55;64.44
64711;BME280;51139;45.626;6.850;2024-01-30T20:28:50;83247.84;;;2.45;64.86
64711;BME280;51139;45.626;6.850;2024-01-30T20:31:20;83254.47;;;2.35;66.04
64711;BME280;51139;45.626;6.850;2024-01-30T20:33:47;83250.19;;;2.37;65.79
64711;BME280;51139;45.626;6.850;2024-01-30T20:36:13;83249.03;;;2.67;62.84
64711;BME280;51139;45.626;6.850;2024-01-30T20:38:39;83251.19;;;2.74;61.97
64711;BME280;51139;45.626;6.850;2024-01-30T20:41:04;83251.41;;;2.65;60.33
64711;BME280;51139;45.626;6.850;2024-01-30T20:43:33;83253.31;;;2.70;60.22
64711;BME280;51139;45.626;6.850;2024-01-30T20:45:59;83242.13;;;2.63;60.23
64711;BME280;51139;45.626;6.850;2024-01-30T20:48:24;83245.69;;;2.55;59.96
64711;BME280;51139;45.626;6.850;2024-01-30T20:50:51;83243.56;;;2.65;59.79
64711;BME280;51139;45.626;6.850;2024-01-30T20:53:17;83245.00;;;2.66;58.80
64711;BME280;51139;45.626;6.850;2024-01-30T20:55:42;83254.03;;;2.65;59.79